Terminal Aerodrome Forecast
Issued by NWS Jacksonville, FL

Current Version | Previous Version | Text Only | Print | Product List | Glossary On
Versions: 1 2 3 4 5 6 7 8 9 10 11 12 13 14 15
000
FTUS42 KJAX 231140
TAFGNV
TAF
KGNV 231140Z 2312/2412 02004KT P6SM SCT020
     FM231700 06010KT P6SM VCTS SCT020 BKN035CB
     FM232300 05006KT P6SM BKN040=

USA.gov is the U.S. government's official web portal to all federal, state and local government web resources and services.